Time;durP1;ratioP1;P1;durP2;ratioP2;P2;SDS_P1;SDS_P2;PMS_P1;PMS_P2;Temp;Humidity;BMP_temperature;BMP_pressure;BME280_temperature;BME280_humidity;BME280_pressure;Samples;Min_cycle;Max_cycle;Signal;HPM_P1;HPM_P2
2023/10/27 00:01:39;;;;;;;3.50;3.30;;;;;;;9.61;100.00;98632.24;4716836;60;1136712;-76
2023/10/27 00:06:45;;;;;;;4.72;3.40;;;;;;;9.57;100.00;98638.33;4736643;60;1136841;-74
2023/10/27 00:11:50;;;;;;;6.15;3.12;;;;;;;9.60;100.00;98639.83;4888836;58;1136708;-72
2023/10/27 00:16:57;;;;;;;5.77;4.00;;;;;;;9.59;100.00;98645.59;4792999;59;1136841;-72
2023/10/27 00:22:02;;;;;;;7.83;5.05;;;;;;;9.57;100.00;98648.05;4810703;59;1136773;-73
2023/10/27 00:27:08;;;;;;;8.73;4.73;;;;;;;9.56;100.00;98652.50;4913360;57;1136770;-76
2023/10/27 00:32:14;;;;;;;9.20;5.20;;;;;;;9.62;100.00;98643.14;4957244;56;1136607;-72
2023/10/27 00:37:19;;;;;;;6.42;5.03;;;;;;;9.59;100.00;98640.80;4895785;57;1137026;-72
2023/10/27 00:42:25;;;;;;;6.23;4.60;;;;;;;9.56;100.00;98651.67;4967852;57;1136797;-76
2023/10/27 00:47:31;;;;;;;6.10;4.27;;;;;;;9.55;100.00;98641.61;4937916;57;1137262;-75
2023/10/27 00:52:38;;;;;;;8.37;5.07;;;;;;;9.57;100.00;98644.92;4802546;59;1136797;-72
2023/10/27 00:57:44;;;;;;;5.33;4.07;;;;;;;9.52;100.00;98645.88;4932754;58;1136735;-72
2023/10/27 01:02:49;;;;;;;5.83;4.73;;;;;;;9.51;100.00;98639.77;4908764;58;1137194;-76
2023/10/27 01:07:55;;;;;;;7.10;5.15;;;;;;;9.51;100.00;98642.41;4795106;60;1136942;-73
2023/10/27 01:13:01;;;;;;;5.67;4.40;;;;;;;9.53;100.00;98643.58;4923991;56;1136415;-72
2023/10/27 01:18:07;;;;;;;5.30;4.27;;;;;;;9.54;100.00;98637.31;4981564;57;1136807;-72
2023/10/27 01:23:13;;;;;;;11.33;4.53;;;;;;;9.52;100.00;98633.51;4943222;57;1136811;-74
2023/10/27 01:28:18;;;;;;;9.05;5.10;;;;;;;9.52;100.00;98631.36;4793363;60;1139396;-74
2023/10/27 01:33:24;;;;;;;7.13;4.37;;;;;;;9.57;100.00;98640.97;4809985;60;1136918;-72
2023/10/27 01:38:30;;;;;;;6.13;4.33;;;;;;;9.67;100.00;98626.31;4791441;60;1136626;-73
2023/10/27 01:43:35;;;;;;;9.47;3.97;;;;;;;9.72;100.00;98618.25;4792480;59;1137008;-76
2023/10/27 01:48:41;;;;;;;4.50;3.40;;;;;;;9.73;100.00;98602.75;4839145;59;1136951;-74
2023/10/27 01:53:47;;;;;;;7.87;3.13;;;;;;;9.73;100.00;98600.60;4797661;59;1136723;-74
2023/10/27 01:58:52;;;;;;;3.20;2.98;;;;;;;9.68;100.00;98603.72;4690910;60;1137268;-73
2023/10/27 02:03:58;;;;;;;3.43;3.13;;;;;;;9.62;100.00;98587.71;4988808;57;1136931;-72
2023/10/27 02:09:04;;;;;;;3.95;3.42;;;;;;;9.56;100.00;98585.70;4996499;58;1136949;-72
2023/10/27 02:14:09;;;;;;;3.00;2.80;;;;;;;9.58;100.00;98585.05;4909767;57;1136728;-72
2023/10/27 02:19:15;;;;;;;2.80;2.60;;;;;;;9.66;100.00;98584.57;4784806;60;1136932;-74
2023/10/27 02:24:21;;;;;;;7.83;6.53;;;;;;;9.60;100.00;98579.12;4809608;60;1136662;-74
2023/10/27 02:29:27;;;;;;;7.53;4.40;;;;;;;9.52;100.00;98576.77;4952753;57;1136670;-75
2023/10/27 02:34:33;;;;;;;5.70;4.00;;;;;;;9.56;100.00;98565.91;4811711;59;1136897;-74
2023/10/27 02:39:39;;;;;;;6.80;4.70;;;;;;;9.65;100.00;98563.12;4809465;59;1136897;-74
2023/10/27 02:44:45;;;;;;;5.03;4.10;;;;;;;9.67;100.00;98562.47;4790840;60;1136708;-73
2023/10/27 02:49:51;;;;;;;6.63;4.50;;;;;;;9.67;100.00;98561.15;4791049;59;1136691;-73
2023/10/27 02:54:57;;;;;;;6.33;4.27;;;;;;;9.71;100.00;98565.62;4931038;58;1137054;-74
2023/10/27 03:00:04;;;;;;;5.10;3.63;;;;;;;9.71;100.00;98558.52;4908391;58;1137583;-74
2023/10/27 03:05:10;;;;;;;3.53;3.23;;;;;;;9.72;100.00;98557.55;4910125;58;1136430;-73
2023/10/27 03:10:16;;;;;;;5.27;4.37;;;;;;;9.79;100.00;98557.70;4770500;59;1136818;-73
2023/10/27 03:15:21;;;;;;;7.97;5.73;;;;;;;9.79;100.00;98559.02;4914571;58;1136648;-73
2023/10/27 03:20:28;;;;;;;9.27;6.97;;;;;;;9.76;100.00;98559.38;4792105;60;1136746;-76
2023/10/27 03:25:33;;;;;;;9.97;7.57;;;;;;;9.81;100.00;98554.41;4795986;59;1136559;-73
2023/10/27 03:30:39;;;;;;;9.73;7.57;;;;;;;9.81;100.00;98555.73;4819934;58;1136827;-73
2023/10/27 03:35:46;;;;;;;11.17;6.97;;;;;;;9.72;100.00;98556.22;4787726;59;1136737;-72
2023/10/27 03:40:53;;;;;;;13.53;7.17;;;;;;;9.69;100.00;98565.78;4790057;60;1138722;-72
2023/10/27 03:45:59;;;;;;;11.43;7.47;;;;;;;9.72;100.00;98561.50;4913760;57;1139660;-74
2023/10/27 03:51:07;;;;;;;10.08;7.37;;;;;;;9.73;100.00;98570.25;4920527;56;1138978;-74
2023/10/27 03:56:13;;;;;;;11.53;8.57;;;;;;;9.70;100.00;98573.20;4939419;57;1138785;-76
2023/10/27 04:01:18;;;;;;;13.62;9.60;;;;;;;9.66;100.00;98567.91;4958125;57;1138908;-74
2023/10/27 04:06:24;;;;;;;12.40;8.50;;;;;;;9.61;100.00;98569.73;4960414;57;1138752;-72
2023/10/27 04:11:30;;;;;;;16.60;9.70;;;;;;;9.59;100.00;98567.73;4798730;58;1139086;-70
2023/10/27 04:16:37;;;;;;;14.63;9.20;;;;;;;9.59;100.00;98564.27;4711543;60;1138872;-77
2023/10/27 04:21:42;;;;;;;17.93;11.50;;;;;;;9.61;100.00;98568.41;4733035;60;1138914;-74
2023/10/27 04:26:48;;;;;;;16.60;10.60;;;;;;;9.64;100.00;98568.55;4788441;59;1213912;-72
2023/10/27 04:31:53;;;;;;;15.57;10.43;;;;;;;9.62;100.00;98571.38;4808313;58;1141219;-74
2023/10/27 04:36:59;;;;;;;16.12;11.03;;;;;;;9.60;100.00;98575.16;4923783;58;1140757;-73
2023/10/27 04:42:05;;;;;;;20.27;12.23;;;;;;;9.51;100.00;98577.76;4822192;58;1140836;-75
2023/10/27 04:47:10;;;;;;;20.17;10.73;;;;;;;9.46;100.00;98577.43;4742638;59;1141033;-71
2023/10/27 04:52:16;;;;;;;14.67;10.07;;;;;;;9.46;100.00;98577.43;4724221;59;1141191;-75
2023/10/27 04:57:22;;;;;;;14.60;10.00;;;;;;;9.53;100.00;98573.64;4764378;60;1140826;-72
2023/10/27 05:02:27;;;;;;;13.17;9.80;;;;;;;9.53;100.00;98573.64;4771988;59;1141075;-68
2023/10/27 05:07:33;;;;;;;18.32;10.95;;;;;;;9.55;100.00;98580.91;4791780;59;1138754;-68
2023/10/27 05:12:39;;;;;;;16.97;10.50;;;;;;;9.50;100.00;98590.62;4782560;59;1140705;-71
2023/10/27 05:17:45;;;;;;;16.93;9.90;;;;;;;9.56;100.00;98591.80;4776016;59;1140717;-69
2023/10/27 05:22:51;;;;;;;13.20;10.00;;;;;;;9.60;100.00;98587.87;4800400;59;1138835;-68
2023/10/27 05:27:57;;;;;;;13.70;10.32;;;;;;;9.62;100.00;98604.86;4907973;58;1140947;-67
2023/10/27 05:33:03;;;;;;;15.60;10.63;;;;;;;9.60;100.00;98606.34;4811946;57;1141033;-68
2023/10/27 05:38:09;;;;;;;21.13;13.80;;;;;;;9.57;100.00;98601.87;4904278;57;1141106;-67
2023/10/27 05:43:17;;;;;;;23.23;14.50;;;;;;;9.55;100.00;98608.63;4764741;59;1141059;-68
2023/10/27 05:48:23;;;;;;;19.23;12.33;;;;;;;9.55;100.00;98607.80;4862464;58;1140917;-70
2023/10/27 05:53:31;;;;;;;20.80;11.53;;;;;;;9.53;100.00;98603.50;4754037;58;1141073;-71
2023/10/27 05:58:36;;;;;;;19.70;12.20;;;;;;;9.58;100.00;98599.56;4861962;59;1140868;-75
2023/10/27 06:03:41;;;;;;;18.30;11.40;;;;;;;9.57;100.00;98601.87;4946003;57;1141088;-74
2023/10/27 06:08:48;;;;;;;17.77;11.60;;;;;;;9.58;100.00;98607.48;4917669;57;1140853;-77
2023/10/27 06:13:55;;;;;;;17.20;11.40;;;;;;;9.56;100.00;98598.41;4886516;57;1140854;-74
2023/10/27 06:19:00;;;;;;;18.32;12.98;;;;;;;9.56;100.00;98590.48;4894096;58;1141179;-76
2023/10/27 06:24:10;;;;;;;16.73;12.05;;;;;;;9.52;100.00;98593.92;4756881;58;1140979;-76
2023/10/27 06:29:16;;;;;;;36.63;19.20;;;;;;;9.48;100.00;98591.27;4877043;57;1141508;-73
2023/10/27 06:34:21;;;;;;;30.63;17.87;;;;;;;9.40;100.00;98598.33;4819875;58;1141034;-74
2023/10/27 06:39:28;;;;;;;20.20;13.90;;;;;;;9.36;100.00;98597.81;4810487;58;1140866;-75
2023/10/27 06:44:33;;;;;;;22.57;13.20;;;;;;;9.33;100.00;98592.85;4783137;58;1141245;-74
2023/10/27 06:49:39;;;;;;;21.83;13.40;;;;;;;9.32;100.00;98589.88;4732149;60;1141787;-74
2023/10/27 06:54:46;;;;;;;28.10;13.87;;;;;;;9.28;100.00;98587.73;4819975;58;1140941;-75
2023/10/27 06:59:55;;;;;;;16.93;12.23;;;;;;;9.25;100.00;98586.23;4916901;57;1141145;-75
2023/10/27 07:05:00;;;;;;;17.30;11.90;;;;;;;9.21;100.00;98592.80;4907743;57;1140970;-73
2023/10/27 07:10:06;;;;;;;21.35;13.15;;;;;;;9.16;100.00;98601.20;4794091;59;1140965;-79
2023/10/27 07:15:14;;;;;;;26.00;13.60;;;;;;;9.18;100.00;98603.66;4816694;58;1140980;-77
2023/10/27 07:20:19;;;;;;;22.40;14.33;;;;;;;9.22;100.00;98608.96;4791911;59;1141027;-75
2023/10/27 07:25:25;;;;;;;21.95;12.30;;;;;;;9.28;100.00;98605.70;4913357;56;1141035;-75
2023/10/27 07:30:33;;;;;;;19.30;13.70;;;;;;;9.33;100.00;98606.04;4901519;57;1140912;-75
2023/10/27 07:35:39;;;;;;;23.50;14.13;;;;;;;9.38;100.00;98600.30;4949524;57;1140771;-75
2023/10/27 07:40:44;;;;;;;25.27;14.67;;;;;;;9.38;100.00;98601.13;4901783;57;1140852;-73
2023/10/27 07:45:50;;;;;;;32.03;13.60;;;;;;;9.32;100.00;98597.79;4947685;57;1141050;-76
2023/10/27 07:51:03;;;;;;;26.37;14.63;;;;;;;9.34;100.00;98604.23;4829089;58;1145562;-76
2023/10/27 07:56:04;;;;;;;25.05;14.53;;;;;;;9.36;100.00;98615.45;4776916;59;1141026;-74
2023/10/27 08:01:10;;;;;;;39.83;25.00;;;;;;;9.35;100.00;98621.22;4901501;58;1140676;-77
2023/10/27 08:06:15;;;;;;;30.90;19.70;;;;;;;9.39;100.00;98619.93;4922816;57;1141033;-76
2023/10/27 08:11:21;;;;;;;29.02;16.07;;;;;;;9.44;100.00;98618.98;4803606;58;1141045;-74
2023/10/27 08:16:27;;;;;;;40.83;17.27;;;;;;;9.42;100.00;98620.94;4755946;59;1140964;-73
2023/10/27 08:21:33;;;;;;;30.30;16.40;;;;;;;9.40;100.00;98614.99;4816485;58;1140796;-77
2023/10/27 08:26:39;;;;;;;29.13;16.23;;;;;;;9.37;100.00;98615.79;4808436;59;1140811;-73
2023/10/27 08:31:44;;;;;;;29.73;15.63;;;;;;;9.33;100.00;98615.77;4937597;57;1140968;-75
2023/10/27 08:36:50;;;;;;;28.40;16.20;;;;;;;9.26;100.00;98612.95;4811087;58;1140909;-75
2023/10/27 08:41:55;;;;;;;31.47;16.23;;;;;;;9.29;100.00;98610.49;4918963;57;1140979;-76
2023/10/27 08:47:07;;;;;;;26.33;14.90;;;;;;;9.33;100.00;98621.04;4812222;58;1140995;-78
2023/10/27 08:52:09;;;;;;;22.62;12.80;;;;;;;9.38;100.00;98614.32;4782764;59;1141375;-75
2023/10/27 08:57:15;;;;;;;24.50;14.23;;;;;;;9.50;100.00;98618.81;4896684;58;1141066;-73
2023/10/27 09:02:33;;;;;;;21.82;12.73;;;;;;;9.57;100.00;98615.89;4863210;58;1140888;-75
2023/10/27 09:07:39;;;;;;;29.05;13.83;;;;;;;9.64;100.00;98618.70;4906102;57;1140943;-76
2023/10/27 09:12:47;;;;;;;23.10;12.93;;;;;;;9.66;100.00;98610.13;4787588;59;1140705;-76
2023/10/27 09:17:57;;;;;;;24.27;14.73;;;;;;;9.67;100.00;98615.26;4906105;57;1140711;-73
2023/10/27 09:23:05;;;;;;;28.52;15.72;;;;;;;9.71;100.00;98611.81;4792054;59;1141181;-71
2023/10/27 09:28:11;;;;;;;32.50;17.92;;;;;;;9.67;100.00;98622.34;4896821;58;1140782;-70
2023/10/27 09:33:19;;;;;;;32.53;15.80;;;;;;;9.68;100.00;98619.55;4944613;57;1141009;-73
2023/10/27 09:38:25;;;;;;;27.05;15.60;;;;;;;9.73;100.00;98619.91;4841764;58;1140909;-75
2023/10/27 09:43:35;;;;;;;29.00;15.27;;;;;;;9.78;100.00;98617.59;4977288;57;1140802;-75
2023/10/27 09:48:42;;;;;;;27.90;15.23;;;;;;;9.82;100.00;98618.94;4908063;57;1141102;-75
2023/10/27 09:53:51;;;;;;;23.97;13.40;;;;;;;9.86;100.00;98617.64;4867077;58;1141047;-76
2023/10/27 09:58:57;;;;;;;26.63;14.77;;;;;;;9.86;100.00;98614.17;4919363;58;1140913;-74
2023/10/27 10:04:03;;;;;;;23.40;12.47;;;;;;;9.85;100.00;98619.12;4885088;58;1140919;-75
2023/10/27 10:09:14;;;;;;;23.55;14.10;;;;;;;9.82;100.00;98603.09;4818637;58;1140943;-76
2023/10/27 10:14:42;;;;;;;24.07;12.78;;;;;;;9.84;100.00;98601.62;4812607;58;1141179;-70
2023/10/27 10:19:52;;;;;;;19.13;11.03;;;;;;;9.88;100.00;98590.58;4916856;58;1140766;-73
2023/10/27 10:25:22;;;;;;;15.80;10.13;;;;;;;9.94;100.00;98579.02;4909910;57;1140862;-75
2023/10/27 10:30:28;;;;;;;14.37;8.53;;;;;;;9.95;100.00;98578.03;4748188;59;1141026;-73
2023/10/27 10:35:37;;;;;;;24.20;11.33;;;;;;;9.99;100.00;98589.44;4861316;58;1138956;-75
2023/10/27 10:40:51;;;;;;;33.43;16.07;;;;;;;9.99;100.00;98595.21;4895588;58;1141658;-70
2023/10/27 10:46:01;;;;;;;30.73;15.47;;;;;;;9.92;100.00;98590.27;4843061;59;1140723;-73
2023/10/27 10:51:29;;;;;;;30.60;15.00;;;;;;;9.84;100.00;98595.84;4978896;56;1141295;-77
2023/10/27 10:56:25;;;;;;;27.77;15.63;;;;;;;9.81;100.00;98586.92;4842629;58;1141093;-74
2023/10/27 11:01:30;;;;;;;24.87;13.57;;;;;;;9.82;100.00;98581.15;4777189;58;1141135;-73
2023/10/27 11:06:36;;;;;;;18.50;11.80;;;;;;;9.84;100.00;98567.30;4846996;58;1141727;-75
2023/10/27 11:11:42;;;;;;;32.43;13.83;;;;;;;9.85;100.00;98559.22;4913162;57;1140833;-75
2023/10/27 11:17:00;;;;;;;19.90;12.33;;;;;;;9.86;100.00;98554.77;4906418;57;1140986;-72
2023/10/27 11:22:06;;;;;;;19.10;11.38;;;;;;;9.87;100.00;98555.09;4894476;58;1141800;-67
2023/10/27 11:27:14;;;;;;;13.15;8.90;;;;;;;9.88;100.00;98546.19;4736402;59;1141258;-66
2023/10/27 11:32:20;;;;;;;14.47;8.93;;;;;;;9.81;100.00;98542.53;4887940;56;1138929;-68
2023/10/27 11:37:26;;;;;;;16.77;11.80;;;;;;;9.71;100.00;98530.81;4808035;59;1138848;-66
2023/10/27 11:42:31;;;;;;;20.60;12.40;;;;;;;9.58;100.00;98533.59;4765995;59;1140836;-68
2023/10/27 11:47:37;;;;;;;22.87;13.33;;;;;;;9.51;100.00;98528.94;4769232;57;1140879;-71
2023/10/27 11:52:42;;;;;;;38.70;23.57;;;;;;;9.52;100.00;98527.95;4781766;59;1140776;-67
2023/10/27 11:57:48;;;;;;;26.50;17.57;;;;;;;9.58;100.00;98528.31;4828958;58;1141187;-69
2023/10/27 12:02:53;;;;;;;25.60;18.63;;;;;;;9.62;100.00;98518.59;4803910;59;1140798;-70
2023/10/27 12:07:59;;;;;;;25.73;18.23;;;;;;;9.68;100.00;98521.89;4727813;60;1141009;-68
2023/10/27 12:13:06;;;;;;;27.93;18.17;;;;;;;9.67;100.00;98526.83;4722428;60;1141089;-67
2023/10/27 12:18:12;;;;;;;30.63;18.20;;;;;;;9.66;100.00;98517.27;4889468;57;1141045;-70
2023/10/27 12:23:20;;;;;;;26.30;18.17;;;;;;;9.62;100.00;98517.77;4782540;59;1140914;-66
2023/10/27 12:28:30;;;;;;;39.67;30.50;;;;;;;9.59;100.00;98525.52;4763851;59;1140965;-70
2023/10/27 12:33:35;;;;;;;35.00;22.02;;;;;;;9.58;100.00;98532.27;4704519;60;1141483;-68
2023/10/27 12:38:41;;;;;;;30.23;21.87;;;;;;;9.56;100.00;98539.52;4706747;61;1141016;-69
2023/10/27 12:43:47;;;;;;;41.53;26.73;;;;;;;9.53;100.00;98543.30;4713300;60;1140993;-69
2023/10/27 12:48:53;;;;;;;37.53;24.27;;;;;;;9.48;100.00;98548.22;4667468;60;1141010;-75
2023/10/27 12:53:59;;;;;;;31.70;23.17;;;;;;;9.44;100.00;98549.55;4870188;59;1141037;-74
2023/10/27 12:59:05;;;;;;;33.25;21.52;;;;;;;9.43;100.00;98557.95;4898142;58;1141002;-75
2023/10/27 13:04:12;;;;;;;32.63;21.65;;;;;;;9.40;100.00;98558.27;4753242;59;1140951;-76
2023/10/27 13:09:21;;;;;;;34.97;21.70;;;;;;;9.40;100.00;98554.80;4899742;57;1141149;-74
2023/10/27 13:14:27;;;;;;;35.30;22.50;;;;;;;9.37;100.00;98545.87;4894473;58;1140964;-72
2023/10/27 13:19:38;;;;;;;34.67;23.60;;;;;;;9.38;100.00;98547.53;4889524;57;1141307;-77
2023/10/27 13:24:39;;;;;;;36.27;21.93;;;;;;;9.37;100.00;98549.84;4876169;58;1140831;-73
2023/10/27 13:29:46;;;;;;;33.57;22.13;;;;;;;9.37;100.00;98541.92;4741746;59;1141168;-74
2023/10/27 13:34:51;;;;;;;51.80;27.67;;;;;;;9.40;100.00;98545.08;4897278;58;1141353;-75
2023/10/27 13:39:58;;;;;;;36.47;23.20;;;;;;;9.42;100.00;98551.02;4888265;58;1141085;-75
2023/10/27 13:45:04;;;;;;;32.47;20.87;;;;;;;9.41;100.00;98553.81;4733882;60;1141065;-70
2023/10/27 13:50:11;;;;;;;30.77;20.85;;;;;;;9.40;100.00;98551.67;4908673;57;1140971;-76
2023/10/27 13:55:16;;;;;;;47.47;27.93;;;;;;;9.37;100.00;98551.16;4918352;57;1150368;-73
2023/10/27 14:00:28;;;;;;;40.65;25.85;;;;;;;9.37;100.00;98550.66;4793093;59;1141319;-71
2023/10/27 14:05:30;;;;;;;28.70;19.17;;;;;;;9.37;100.00;98551.16;4932640;57;1141040;-77
2023/10/27 14:10:36;;;;;;;30.73;20.40;;;;;;;9.34;100.00;98557.57;4905246;57;1140912;-74
2023/10/27 14:15:41;;;;;;;32.20;24.73;;;;;;;9.35;100.00;98567.14;4791013;60;1140830;-73
2023/10/27 14:20:47;;;;;;;34.80;20.40;;;;;;;9.37;100.00;98577.05;4929981;57;1141042;-77
2023/10/27 14:25:53;;;;;;;36.27;24.63;;;;;;;9.39;100.00;98569.80;4899607;57;1140794;-73
2023/10/27 14:30:59;;;;;;;41.60;25.60;;;;;;;9.31;100.00;98568.47;4781704;59;1140799;-78
2023/10/27 14:36:08;;;;;;;34.60;23.93;;;;;;;9.24;100.00;98578.47;4709375;60;1140955;-73
2023/10/27 14:41:14;;;;;;;34.70;21.65;;;;;;;9.18;100.00;98573.33;4834932;58;1141084;-75
2023/10/27 14:46:21;;;;;;;36.57;21.97;;;;;;;9.13;100.00;98580.91;4882797;58;1140897;-72
2023/10/27 14:51:26;;;;;;;33.80;23.00;;;;;;;9.08;100.00;98586.64;4923148;57;1141049;-74
2023/10/27 14:56:32;;;;;;;34.20;22.00;;;;;;;9.10;100.00;98587.80;4712866;60;1140806;-76
2023/10/27 15:01:37;;;;;;;41.00;25.60;;;;;;;9.11;100.00;98593.41;4877658;58;1140798;-75
2023/10/27 15:06:43;;;;;;;38.40;25.17;;;;;;;9.09;100.00;98595.38;4925063;57;1141087;-73
2023/10/27 15:11:49;;;;;;;45.07;28.47;;;;;;;9.08;100.00;98593.72;4784251;60;1140767;-72
2023/10/27 15:16:54;;;;;;;51.73;29.53;;;;;;;9.14;100.00;98599.70;4854694;57;1140873;-74
2023/10/27 15:22:00;;;;;;;48.07;27.20;;;;;;;9.19;100.00;98597.40;5003483;57;1140928;-77
2023/10/27 15:27:05;;;;;;;39.07;24.67;;;;;;;9.24;100.00;98600.89;4819699;58;1140773;-75
2023/10/27 15:32:12;;;;;;;34.03;21.07;;;;;;;9.27;100.00;98604.55;4717464;60;1141112;-73
2023/10/27 15:37:17;;;;;;;33.30;21.03;;;;;;;9.33;100.00;98606.04;4785088;59;1140965;-72
2023/10/27 15:42:23;;;;;;;65.70;43.63;;;;;;;9.37;100.00;98601.28;4809487;60;1141082;-75
2023/10/27 15:47:40;;;;;;;65.63;40.80;;;;;;;9.40;100.00;98606.25;4707360;60;1141360;-74
2023/10/27 15:52:45;;;;;;;59.63;33.33;;;;;;;9.42;100.00;98613.02;4779124;59;1141079;-72
2023/10/27 15:57:50;;;;;;;48.57;29.80;;;;;;;9.45;100.00;98624.59;4910864;57;1140841;-75
2023/10/27 16:02:56;;;;;;;88.70;46.18;;;;;;;9.47;100.00;98616.00;4898416;58;1141092;-74
2023/10/27 16:08:02;;;;;;;110.72;66.37;;;;;;;9.51;100.00;98621.30;4906108;56;1140824;-71
2023/10/27 16:13:08;;;;;;;122.17;72.85;;;;;;;9.50;100.00;98630.69;4923857;57;1143134;-74
2023/10/27 16:18:17;;;;;;;130.00;70.28;;;;;;;9.53;100.00;98627.73;4942977;57;1143387;-74
2023/10/27 16:23:21;;;;;;;119.73;63.13;;;;;;;9.50;100.00;98624.09;4987184;58;1143144;-72
2023/10/27 16:28:26;;;;;;;73.55;44.27;;;;;;;9.52;100.00;98623.45;4988076;58;1142787;-72
2023/10/27 16:33:32;;;;;;;57.00;32.47;;;;;;;9.51;100.00;98616.52;5006074;58;1141170;-72
2023/10/27 16:38:38;;;;;;;51.23;33.20;;;;;;;9.48;100.00;98620.78;4970398;57;1140753;-74
2023/10/27 16:43:44;;;;;;;64.80;41.83;;;;;;;9.48;100.00;98622.09;4871943;58;1140820;-72
2023/10/27 16:48:50;;;;;;;68.83;47.43;;;;;;;9.46;100.00;98624.09;4809692;60;1141147;-73
2023/10/27 16:53:56;;;;;;;60.80;40.87;;;;;;;9.43;100.00;98628.36;4792647;59;1141043;-72
2023/10/27 16:59:01;;;;;;;65.70;41.07;;;;;;;9.44;100.00;98628.21;4801856;58;1242317;-72
2023/10/27 17:04:07;;;;;;;78.57;39.50;;;;;;;9.45;100.00;98617.99;4808717;60;1141001;-76
2023/10/27 17:09:13;;;;;;;63.27;40.83;;;;;;;9.45;100.00;98626.41;4790004;60;1140863;-73
2023/10/27 17:14:19;;;;;;;70.52;44.63;;;;;;;9.44;100.00;98617.66;4789942;59;1141102;-75
2023/10/27 17:19:24;;;;;;;71.20;42.67;;;;;;;9.43;100.00;98623.09;4924325;57;1140705;-72
2023/10/27 17:24:32;;;;;;;73.97;41.90;;;;;;;9.42;100.00;98622.75;4792583;60;1141068;-72
2023/10/27 17:29:40;;;;;;;91.07;52.03;;;;;;;9.40;100.00;98618.12;4775874;59;1140979;-73
2023/10/27 17:34:48;;;;;;;62.70;36.37;;;;;;;9.36;100.00;98616.28;4789564;59;1140855;-70
2023/10/27 17:39:53;;;;;;;80.17;44.70;;;;;;;9.36;100.00;98618.09;4721011;59;1140917;-75
2023/10/27 17:44:59;;;;;;;64.20;38.25;;;;;;;9.34;100.00;98626.16;4912607;57;1141314;-75
2023/10/27 17:50:05;;;;;;;57.70;33.40;;;;;;;9.34;100.00;98623.52;4907540;58;1140817;-74
2023/10/27 17:55:12;;;;;;;59.60;33.38;;;;;;;9.35;100.00;98627.81;4852656;58;1140891;-70
2023/10/27 18:00:18;;;;;;;61.23;34.60;;;;;;;9.33;100.00;98629.78;4776561;59;1140910;-73
2023/10/27 18:05:24;;;;;;;79.03;40.17;;;;;;;9.32;100.00;98633.41;4793096;60;1140952;-72
2023/10/27 18:10:30;;;;;;;81.00;39.50;;;;;;;9.33;100.00;98632.42;4857709;58;1140894;-69
2023/10/27 18:15:40;;;;;;;76.97;42.50;;;;;;;9.36;100.00;98633.44;4716457;61;1141027;-67
2023/10/27 18:20:46;;;;;;;74.33;43.33;;;;;;;9.34;100.00;98638.03;4950594;57;1140718;-71
2023/10/27 18:25:52;;;;;;;92.83;50.23;;;;;;;9.26;100.00;98638.00;4784737;60;1140927;-69
2023/10/27 18:31:03;;;;;;;76.07;41.97;;;;;;;9.21;100.00;98644.23;4788791;59;1140876;-69
2023/10/27 18:36:15;;;;;;;54.67;34.30;;;;;;;9.17;100.00;98653.43;4913978;58;1141424;-69
2023/10/27 18:41:21;;;;;;;65.60;35.75;;;;;;;9.14;100.00;98649.32;4906110;58;1140805;-71
2023/10/27 18:46:26;;;;;;;94.80;46.83;;;;;;;9.09;100.00;98654.22;4825828;59;1140897;-68
2023/10/27 18:51:36;;;;;;;103.03;46.87;;;;;;;9.12;100.00;98653.09;4870577;59;1140961;-70
2023/10/27 18:56:39;;;;;;;101.83;52.83;;;;;;;9.14;100.00;98661.67;4866042;59;1142977;-69
2023/10/27 19:01:45;;;;;;;114.43;57.77;;;;;;;9.15;100.00;98666.80;5037293;57;1142936;-69
2023/10/27 19:06:51;;;;;;;117.17;59.33;;;;;;;9.15;100.00;98666.80;4827182;59;1143156;-73
2023/10/27 19:12:08;;;;;;;137.80;67.00;;;;;;;9.26;100.00;98670.98;4927328;58;1143108;-73
2023/10/27 19:17:29;;;;;;;135.37;64.33;;;;;;;9.27;100.00;98679.23;4897311;58;1142952;-70
2023/10/27 19:22:39;;;;;;;112.67;57.60;;;;;;;9.36;100.00;98680.92;4807727;60;1143132;-71
2023/10/27 19:27:45;;;;;;;97.70;53.23;;;;;;;9.42;100.00;98684.27;4896205;58;1143339;-73
2023/10/27 19:32:51;;;;;;;94.53;49.80;;;;;;;9.42;100.00;98690.03;4880284;58;1141075;-74
2023/10/27 19:37:56;;;;;;;86.40;47.30;;;;;;;9.32;100.00;98698.56;4810336;59;1141218;-74
2023/10/27 19:43:02;;;;;;;99.73;54.33;;;;;;;9.22;100.00;98704.41;4909617;57;1250160;-72
2023/10/27 19:48:08;;;;;;;103.27;56.17;;;;;;;9.08;100.00;98703.98;4910014;57;1140861;-74
2023/10/27 19:53:14;;;;;;;104.87;57.70;;;;;;;9.00;100.00;98703.11;4931511;57;1143202;-72
2023/10/27 19:58:20;;;;;;;98.87;57.00;;;;;;;8.96;100.00;98708.34;4901903;57;1143244;-72
2023/10/27 20:03:26;;;;;;;92.50;51.27;;;;;;;8.93;100.00;98717.38;4901259;57;1140927;-74
2023/10/27 20:08:33;;;;;;;80.50;49.60;;;;;;;8.88;100.00;98719.64;4800269;60;1141060;-73
2023/10/27 20:13:45;;;;;;;87.27;51.90;;;;;;;8.94;100.00;98731.39;4931877;58;1140834;-75
2023/10/27 20:18:47;;;;;;;82.30;48.13;;;;;;;8.98;100.00;98736.71;4918024;57;1141020;-70
2023/10/27 20:23:53;;;;;;;83.58;46.88;;;;;;;9.09;100.00;98735.14;4925200;57;1140785;-74
2023/10/27 20:28:58;;;;;;;81.00;41.90;;;;;;;9.10;100.00;98742.08;4768500;60;1140869;-73
2023/10/27 20:34:04;;;;;;;73.22;41.10;;;;;;;9.03;100.00;98747.61;4790869;60;1141048;-72
2023/10/27 20:39:10;;;;;;;65.92;35.68;;;;;;;8.97;100.00;98749.06;4897532;57;1141193;-73
2023/10/27 20:44:17;;;;;;;77.67;42.15;;;;;;;8.89;100.00;98752.94;4914246;57;1140878;-71
2023/10/27 20:49:24;;;;;;;70.67;39.17;;;;;;;8.82;100.00;98753.22;4897273;57;1141068;-74
2023/10/27 20:54:29;;;;;;;65.67;37.60;;;;;;;8.78;100.00;98759.27;4762739;60;1141064;-72
2023/10/27 20:59:35;;;;;;;68.53;36.07;;;;;;;8.79;100.00;98753.51;4788893;59;1140839;-71
2023/10/27 21:04:41;;;;;;;60.83;34.77;;;;;;;8.85;100.00;98749.45;4905055;58;1141059;-71
2023/10/27 21:09:46;;;;;;;54.57;33.60;;;;;;;8.91;100.00;98761.52;4912319;57;1141205;-74
2023/10/27 21:14:52;;;;;;;73.37;38.43;;;;;;;8.92;100.00;98767.63;4932136;57;1140955;-73
2023/10/27 21:19:58;;;;;;;75.63;39.57;;;;;;;8.95;100.00;98769.97;4910378;57;1141127;-73
2023/10/27 21:25:04;;;;;;;80.17;43.10;;;;;;;9.04;100.00;98774.31;4907947;58;1141129;-75
2023/10/27 21:30:10;;;;;;;78.83;42.30;;;;;;;9.04;100.00;98778.27;4776603;58;1140851;-70
2023/10/27 21:35:16;;;;;;;67.07;39.57;;;;;;;9.06;100.00;98785.05;4763762;59;1140776;-73
2023/10/27 21:40:21;;;;;;;75.00;40.73;;;;;;;9.14;100.00;98786.95;4904935;57;1141047;-72
2023/10/27 21:45:27;;;;;;;90.03;43.97;;;;;;;9.23;100.00;98789.98;4906307;58;1140969;-71
2023/10/27 21:50:32;;;;;;;77.78;40.15;;;;;;;9.23;100.00;98791.30;4789625;60;1141042;-72
2023/10/27 21:55:38;;;;;;;73.43;38.17;;;;;;;9.29;100.00;98798.61;4898005;57;1140871;-71
2023/10/27 22:00:46;;;;;;;69.30;38.17;;;;;;;9.37;100.00;98795.20;4765798;60;1141010;-74
2023/10/27 22:05:51;;;;;;;60.37;32.00;;;;;;;9.39;100.00;98798.03;4921039;58;1140924;-74
2023/10/27 22:10:57;;;;;;;53.27;29.50;;;;;;;9.39;100.00;98799.83;4912446;58;1140966;-72
2023/10/27 22:16:05;;;;;;;35.37;22.60;;;;;;;9.36;100.00;98804.92;4908688;58;1141088;-70
2023/10/27 22:21:12;;;;;;;30.80;18.90;;;;;;;9.30;100.00;98812.64;4915464;57;1141032;-74
2023/10/27 22:26:17;;;;;;;25.10;16.77;;;;;;;9.18;100.00;98819.44;4813830;59;1141200;-75
2023/10/27 22:31:24;;;;;;;30.50;16.48;;;;;;;9.06;100.00;98816.70;4924306;58;1140919;-73
2023/10/27 22:36:30;;;;;;;21.37;14.40;;;;;;;8.94;100.00;98828.95;4956678;58;1141077;-72
2023/10/27 22:41:35;;;;;;;19.17;12.98;;;;;;;8.81;100.00;98820.92;4988158;57;1140935;-72
2023/10/27 22:46:41;;;;;;;23.83;13.13;;;;;;;8.71;100.00;98832.00;4986503;57;1141002;-73
2023/10/27 22:51:47;;;;;;;16.95;12.20;;;;;;;8.64;100.00;98832.27;5008076;57;1140876;-74
2023/10/27 22:56:54;;;;;;;20.23;13.07;;;;;;;8.60;100.00;98829.58;4997102;57;1140905;-75
2023/10/27 23:01:59;;;;;;;22.90;12.23;;;;;;;8.63;100.00;98832.41;4994704;57;1140943;-75